Time;durP1;ratioP1;P1;durP2;ratioP2;P2;SDS_P1;SDS_P2;PMS_P1;PMS_P2;Temp;Humidity;BMP_temperature;BMP_pressure;BME280_temperature;BME280_humidity;BME280_pressure;Samples;Min_cycle;Max_cycle;Signal;HPM_P1;HPM_P2
2021/06/27 00:01:21;;;;;;;7.97;7.18;;;;;;;;;;5072686;28;20044;-42
2021/06/27 00:04:13;;;;;;;7.95;6.93;;;;;;;;;;5058802;28;20052;-41
2021/06/27 00:06:40;;;;;;;7.93;6.90;;;;;;;;;;5074089;28;20080;-40
2021/06/27 00:09:07;;;;;;;8.43;7.20;;;;;;;;;;5102134;22;20071;-47
2021/06/27 00:11:34;;;;;;;7.97;6.32;;;;;;;;;;5115347;27;20553;-48
2021/06/27 00:14:02;;;;;;;7.90;7.10;;;;;;;;;;5113120;28;20522;-47
2021/06/27 00:16:29;;;;;;;7.13;6.43;;;;;;;;;;5113954;27;20135;-45
2021/06/27 00:18:56;;;;;;;9.90;7.18;;;;;;;;;;5108102;28;20044;-46
2021/06/27 00:21:23;;;;;;;8.15;6.75;;;;;;;;;;5112577;28;20083;-47
2021/06/27 00:23:50;;;;;;;8.30;6.63;;;;;;;;;;5084159;28;20047;-49
2021/06/27 00:26:18;;;;;;;9.57;7.35;;;;;;;;;;5113270;28;20134;-45
2021/06/27 00:28:45;;;;;;;8.93;7.63;;;;;;;;;;5119175;27;20143;-45
2021/06/27 00:31:13;;;;;;;9.20;7.50;;;;;;;;;;5107703;28;20044;-49
2021/06/27 00:33:40;;;;;;;8.63;7.05;;;;;;;;;;5106034;28;20051;-54
2021/06/27 00:36:07;;;;;;;8.50;7.32;;;;;;;;;;5114598;28;20075;-46
2021/06/27 00:38:34;;;;;;;8.35;7.00;;;;;;;;;;5091876;28;20084;-45
2021/06/27 00:41:01;;;;;;;7.60;6.82;;;;;;;;;;5107509;28;20048;-47
2021/06/27 00:43:28;;;;;;;10.30;6.75;;;;;;;;;;5111377;28;20130;-49
2021/06/27 00:45:57;;;;;;;8.18;7.05;;;;;;;;;;5113307;28;20071;-47
2021/06/27 00:48:24;;;;;;;7.75;6.80;;;;;;;;;;5104162;28;20390;-45
2021/06/27 00:50:52;;;;;;;9.15;7.70;;;;;;;;;;5095604;28;20071;-46
2021/06/27 00:53:19;;;;;;;9.35;8.25;;;;;;;;;;5111085;28;20055;-47
2021/06/27 00:55:47;;;;;;;9.13;7.78;;;;;;;;;;5113247;28;20082;-47
2021/06/27 00:58:14;;;;;;;10.50;8.23;;;;;;;;;;5114424;28;20560;-46
2021/06/27 01:00:41;;;;;;;9.02;8.13;;;;;;;;;;5112246;28;20131;-47
2021/06/27 01:03:08;;;;;;;8.90;7.97;;;;;;;;;;5093156;28;20109;-46
2021/06/27 01:05:37;;;;;;;8.63;7.72;;;;;;;;;;5108957;28;20048;-46
2021/06/27 01:08:03;;;;;;;9.13;7.65;;;;;;;;;;5113765;28;20580;-47
2021/06/27 01:10:31;;;;;;;7.95;6.88;;;;;;;;;;5109929;28;20074;-48
2021/06/27 01:12:58;;;;;;;7.65;6.75;;;;;;;;;;5109917;28;20392;-48
2021/06/27 01:15:26;;;;;;;10.07;7.30;;;;;;;;;;5113411;28;20056;-47
2021/06/27 01:17:54;;;;;;;8.45;7.10;;;;;;;;;;5112106;28;20592;-45
2021/06/27 01:20:25;;;;;;;9.23;7.63;;;;;;;;;;5112589;28;20104;-45
2021/06/27 01:22:52;;;;;;;8.85;7.57;;;;;;;;;;5104157;28;20043;-46
2021/06/27 01:25:22;;;;;;;8.50;7.32;;;;;;;;;;5087793;28;20052;-46
2021/06/27 01:27:48;;;;;;;8.10;7.22;;;;;;;;;;5108366;28;20044;-50
2021/06/27 01:30:15;;;;;;;8.43;7.10;;;;;;;;;;5112225;28;20179;-49
2021/06/27 01:32:44;;;;;;;8.55;7.65;;;;;;;;;;5108647;28;20543;-46
2021/06/27 01:35:13;;;;;;;8.43;7.30;;;;;;;;;;5112928;28;20556;-49
2021/06/27 01:37:40;;;;;;;8.60;7.00;;;;;;;;;;5112750;28;20751;-47
2021/06/27 01:40:08;;;;;;;7.70;7.00;;;;;;;;;;5094433;28;20157;-46
2021/06/27 01:42:34;;;;;;;7.65;6.70;;;;;;;;;;5110544;28;20040;-45
2021/06/27 01:45:10;;;;;;;8.00;6.38;;;;;;;;;;5111108;28;20115;-51
2021/06/27 01:47:38;;;;;;;7.57;6.43;;;;;;;;;;5112397;28;20063;-50
2021/06/27 01:50:09;;;;;;;6.53;5.70;;;;;;;;;;5093108;28;20496;-45
2021/06/27 01:52:36;;;;;;;5.53;4.72;;;;;;;;;;5105390;28;20066;-48
2021/06/27 01:55:04;;;;;;;6.20;5.32;;;;;;;;;;5093545;28;20123;-47
2021/06/27 01:57:31;;;;;;;6.18;4.95;;;;;;;;;;5113560;28;20097;-45
2021/06/27 01:59:58;;;;;;;6.90;4.68;;;;;;;;;;5111219;28;20057;-47
2021/06/27 02:02:25;;;;;;;5.53;4.35;;;;;;;;;;5110812;28;20100;-49
2021/06/27 02:04:51;;;;;;;5.13;4.32;;;;;;;;;;5115230;27;20127;-48
2021/06/27 02:07:23;;;;;;;4.55;4.03;;;;;;;;;;5094726;28;20039;-46
2021/06/27 02:09:50;;;;;;;4.60;3.97;;;;;;;;;;5106773;28;20074;-43
2021/06/27 02:12:17;;;;;;;4.78;4.05;;;;;;;;;;5092075;28;20138;-46
2021/06/27 02:14:44;;;;;;;5.82;3.65;;;;;;;;;;5110068;28;20047;-49
2021/06/27 02:17:10;;;;;;;5.07;3.83;;;;;;;;;;5112249;28;20097;-43
2021/06/27 02:19:37;;;;;;;4.40;3.88;;;;;;;;;;5093149;28;20411;-45
2021/06/27 02:22:04;;;;;;;5.13;4.03;;;;;;;;;;5104892;28;20138;-42
2021/06/27 02:24:32;;;;;;;5.35;4.68;;;;;;;;;;5110352;28;20571;-48
2021/06/27 02:27:00;;;;;;;5.43;4.45;;;;;;;;;;5111473;28;20043;-44
2021/06/27 02:29:26;;;;;;;4.63;3.92;;;;;;;;;;5110968;28;20047;-46
2021/06/27 02:31:53;;;;;;;4.45;3.85;;;;;;;;;;5091694;28;20043;-43
2021/06/27 02:34:20;;;;;;;4.18;3.55;;;;;;;;;;5110824;28;20047;-44
2021/06/27 02:36:48;;;;;;;6.05;4.15;;;;;;;;;;5110490;28;20043;-42
2021/06/27 02:39:15;;;;;;;4.78;3.75;;;;;;;;;;5110181;28;20071;-44
2021/06/27 02:41:42;;;;;;;4.53;3.63;;;;;;;;;;5106452;28;20063;-42
2021/06/27 02:44:08;;;;;;;4.85;3.78;;;;;;;;;;5109065;28;20051;-45
2021/06/27 02:46:35;;;;;;;6.05;3.97;;;;;;;;;;5112167;28;20056;-44
2021/06/27 02:49:02;;;;;;;5.05;3.72;;;;;;;;;;5089365;28;20048;-44
2021/06/27 02:51:29;;;;;;;4.03;3.47;;;;;;;;;;5104909;28;20482;-44
2021/06/27 02:53:56;;;;;;;5.72;3.97;;;;;;;;;;5104979;28;20048;-44
2021/06/27 02:56:23;;;;;;;5.05;3.92;;;;;;;;;;5109669;28;20126;-42
2021/06/27 02:58:50;;;;;;;4.72;3.85;;;;;;;;;;5109941;28;20071;-41
2021/06/27 03:01:17;;;;;;;5.18;3.75;;;;;;;;;;5108110;28;20058;-42
2021/06/27 03:03:44;;;;;;;4.45;3.50;;;;;;;;;;5076402;28;20048;-42
2021/06/27 03:06:12;;;;;;;6.22;3.83;;;;;;;;;;5111528;28;20101;-43
2021/06/27 03:08:39;;;;;;;4.28;3.85;;;;;;;;;;5110059;28;20051;-43
2021/06/27 03:11:06;;;;;;;4.68;3.40;;;;;;;;;;5106675;28;20050;-44
2021/06/27 03:13:34;;;;;;;5.43;3.63;;;;;;;;;;5107675;28;20508;-46
2021/06/27 03:16:01;;;;;;;5.25;4.35;;;;;;;;;;5110214;28;20559;-41
2021/06/27 03:18:28;;;;;;;6.68;3.90;;;;;;;;;;5104338;28;20043;-42
2021/06/27 03:20:54;;;;;;;6.10;3.90;;;;;;;;;;5110869;28;20046;-45
2021/06/27 03:23:21;;;;;;;5.65;3.90;;;;;;;;;;5098932;28;20048;-46
2021/06/27 03:25:48;;;;;;;6.18;3.78;;;;;;;;;;5110879;28;20092;-46
2021/06/27 03:28:15;;;;;;;5.10;3.90;;;;;;;;;;5109841;28;20496;-44
2021/06/27 03:30:42;;;;;;;6.60;3.92;;;;;;;;;;5107141;28;20127;-43
2021/06/27 03:33:10;;;;;;;4.72;3.90;;;;;;;;;;5105641;28;20508;-42
2021/06/27 03:35:37;;;;;;;5.13;4.18;;;;;;;;;;5112253;28;20112;-44
2021/06/27 03:38:11;;;;;;;5.57;4.00;;;;;;;;;;5110678;28;20058;-43
2021/06/27 03:40:40;;;;;;;5.13;4.05;;;;;;;;;;5107771;28;20043;-46
2021/06/27 03:43:07;;;;;;;5.75;4.70;;;;;;;;;;5108633;28;20553;-43
2021/06/27 03:45:34;;;;;;;5.47;4.50;;;;;;;;;;5112032;28;20047;-46
2021/06/27 03:48:01;;;;;;;5.95;4.72;;;;;;;;;;5109541;28;20118;-42
2021/06/27 03:50:27;;;;;;;5.88;4.35;;;;;;;;;;5102057;28;20086;-44
2021/06/27 03:52:54;;;;;;;5.13;4.45;;;;;;;;;;5109621;28;20050;-45
2021/06/27 03:55:21;;;;;;;5.35;4.47;;;;;;;;;;5111374;28;20116;-44
2021/06/27 03:57:48;;;;;;;5.65;4.40;;;;;;;;;;5110112;28;20067;-42
2021/06/27 04:00:17;;;;;;;5.20;4.63;;;;;;;;;;5110463;28;20048;-42
2021/06/27 04:02:44;;;;;;;5.82;4.60;;;;;;;;;;5100971;28;20131;-50
2021/06/27 04:05:12;;;;;;;5.80;4.80;;;;;;;;;;5117643;27;20067;-45
2021/06/27 04:07:39;;;;;;;7.30;4.38;;;;;;;;;;5093242;28;20058;-42
2021/06/27 04:10:06;;;;;;;4.07;3.58;;;;;;;;;;5111560;28;20071;-43
2021/06/27 04:12:33;;;;;;;7.00;4.07;;;;;;;;;;5106616;28;20130;-47
2021/06/27 04:15:00;;;;;;;4.88;4.07;;;;;;;;;;5113078;28;20107;-42
2021/06/27 04:17:26;;;;;;;4.03;3.22;;;;;;;;;;5113864;28;20079;-43
2021/06/27 04:19:53;;;;;;;4.78;3.55;;;;;;;;;;5112220;28;20147;-44
2021/06/27 04:22:20;;;;;;;4.82;3.20;;;;;;;;;;5111577;28;20063;-43
2021/06/27 04:24:47;;;;;;;4.78;3.35;;;;;;;;;;5112812;28;20070;-42
2021/06/27 04:27:14;;;;;;;5.22;3.63;;;;;;;;;;5112674;28;20052;-43
2021/06/27 04:29:40;;;;;;;4.88;3.78;;;;;;;;;;5112402;28;20055;-44
2021/06/27 04:32:07;;;;;;;5.38;3.00;;;;;;;;;;5096189;28;20075;-43
2021/06/27 04:34:34;;;;;;;4.88;3.20;;;;;;;;;;5112415;28;20055;-43
2021/06/27 04:37:01;;;;;;;3.95;2.92;;;;;;;;;;5112339;28;20130;-42
2021/06/27 04:39:28;;;;;;;3.63;2.88;;;;;;;;;;5106358;28;20073;-45
2021/06/27 04:41:55;;;;;;;5.40;2.97;;;;;;;;;;5111152;28;20504;-44
2021/06/27 04:44:22;;;;;;;3.20;2.60;;;;;;;;;;5112788;28;20051;-45
2021/06/27 04:46:48;;;;;;;3.17;2.55;;;;;;;;;;5094049;28;20050;-44
2021/06/27 04:49:16;;;;;;;3.72;2.78;;;;;;;;;;5113526;28;20567;-44
2021/06/27 04:51:43;;;;;;;3.10;2.42;;;;;;;;;;5110439;28;20048;-44
2021/06/27 04:54:09;;;;;;;5.00;3.05;;;;;;;;;;5111909;28;20039;-46
2021/06/27 04:56:36;;;;;;;3.95;2.72;;;;;;;;;;5114624;28;20036;-44
2021/06/27 04:59:03;;;;;;;3.58;2.70;;;;;;;;;;5113332;28;20071;-43
2021/06/27 05:01:30;;;;;;;3.78;2.70;;;;;;;;;;5107895;28;20115;-42
2021/06/27 05:03:57;;;;;;;4.10;3.15;;;;;;;;;;5116114;27;20052;-42
2021/06/27 05:06:24;;;;;;;4.63;2.47;;;;;;;;;;5101207;27;20067;-43
2021/06/27 05:08:51;;;;;;;3.55;2.50;;;;;;;;;;5102837;28;20628;-41
2021/06/27 05:11:17;;;;;;;3.28;2.70;;;;;;;;;;5104832;28;20055;-42
2021/06/27 05:13:44;;;;;;;4.38;2.25;;;;;;;;;;5104548;28;20067;-42
2021/06/27 05:16:11;;;;;;;2.95;2.55;;;;;;;;;;5112804;28;20139;-47
2021/06/27 05:18:38;;;;;;;4.65;2.50;;;;;;;;;;5113293;28;20047;-43
2021/06/27 05:21:05;;;;;;;3.65;2.25;;;;;;;;;;5109454;28;20119;-44
2021/06/27 05:23:31;;;;;;;3.10;2.20;;;;;;;;;;5106445;28;20139;-46
2021/06/27 05:25:58;;;;;;;3.55;2.00;;;;;;;;;;5112500;28;20082;-43
2021/06/27 05:28:25;;;;;;;3.08;2.22;;;;;;;;;;5112471;28;20138;-42
2021/06/27 05:30:52;;;;;;;2.83;1.90;;;;;;;;;;5101363;28;20104;-42
2021/06/27 05:33:19;;;;;;;3.13;2.33;;;;;;;;;;5111563;28;20051;-43
2021/06/27 05:35:46;;;;;;;2.97;2.17;;;;;;;;;;5111851;28;20115;-41
2021/06/27 05:38:12;;;;;;;3.65;2.22;;;;;;;;;;5110065;28;20469;-42
2021/06/27 05:40:39;;;;;;;2.83;2.00;;;;;;;;;;5092053;28;20065;-43
2021/06/27 05:43:06;;;;;;;2.42;1.90;;;;;;;;;;5112375;28;20083;-44
2021/06/27 05:45:33;;;;;;;3.75;1.75;;;;;;;;;;5093711;28;20048;-42
2021/06/27 05:47:59;;;;;;;2.90;1.90;;;;;;;;;;5110136;28;20051;-42
2021/06/27 05:50:26;;;;;;;2.63;1.70;;;;;;;;;;5112096;28;20492;-44
2021/06/27 05:52:53;;;;;;;2.97;1.90;;;;;;;;;;5111575;28;20051;-44
2021/06/27 05:55:20;;;;;;;3.05;2.28;;;;;;;;;;5109944;28;20079;-43
2021/06/27 05:57:46;;;;;;;3.13;1.90;;;;;;;;;;5111944;28;20071;-44
2021/06/27 06:00:13;;;;;;;5.00;2.20;;;;;;;;;;5105963;28;20109;-43
2021/06/27 06:02:40;;;;;;;3.90;2.35;;;;;;;;;;5112461;28;20058;-44
2021/06/27 06:05:07;;;;;;;3.20;2.22;;;;;;;;;;5122112;27;20156;-46
2021/06/27 06:07:34;;;;;;;4.20;2.28;;;;;;;;;;5112019;28;20112;-41
2021/06/27 06:10:00;;;;;;;5.80;2.72;;;;;;;;;;5106085;28;20523;-42
2021/06/27 06:12:28;;;;;;;3.15;2.22;;;;;;;;;;5111147;28;20043;-42
2021/06/27 06:14:55;;;;;;;4.20;2.25;;;;;;;;;;5109826;28;20043;-44
2021/06/27 06:17:22;;;;;;;3.50;2.47;;;;;;;;;;5111910;28;20523;-42
2021/06/27 06:19:52;;;;;;;3.78;2.22;;;;;;;;;;5108399;28;20571;-44
2021/06/27 06:22:20;;;;;;;2.55;1.92;;;;;;;;;;5103265;28;20075;-42
2021/06/27 06:24:47;;;;;;;3.40;2.00;;;;;;;;;;5100970;28;20065;-41
2021/06/27 06:27:14;;;;;;;3.15;1.85;;;;;;;;;;5111170;28;20527;-43
2021/06/27 06:29:41;;;;;;;2.55;1.52;;;;;;;;;;5106982;28;20465;-45
2021/06/27 06:32:08;;;;;;;2.40;1.63;;;;;;;;;;5100859;28;20055;-44
2021/06/27 06:34:34;;;;;;;2.63;1.70;;;;;;;;;;5110821;28;20043;-47
2021/06/27 06:37:02;;;;;;;2.95;1.40;;;;;;;;;;5111293;28;20059;-43
2021/06/27 06:39:29;;;;;;;2.42;1.40;;;;;;;;;;5101092;28;20047;-44
2021/06/27 06:41:56;;;;;;;2.40;1.52;;;;;;;;;;5107906;28;20709;-42
2021/06/27 06:44:23;;;;;;;2.65;1.65;;;;;;;;;;5109175;28;20530;-43
2021/06/27 06:46:49;;;;;;;2.45;1.63;;;;;;;;;;5111066;22;20475;-40
2021/06/27 06:49:16;;;;;;;3.17;1.50;;;;;;;;;;5089547;28;20105;-41
2021/06/27 06:51:43;;;;;;;2.13;1.70;;;;;;;;;;5087175;28;20979;-40
2021/06/27 06:54:10;;;;;;;2.50;1.60;;;;;;;;;;5072022;28;20087;-40
2021/06/27 06:56:36;;;;;;;2.00;1.60;;;;;;;;;;5072622;28;20101;-40
2021/06/27 06:59:03;;;;;;;2.10;1.70;;;;;;;;;;5073454;28;20139;-40
2021/06/27 07:01:30;;;;;;;3.13;2.28;;;;;;;;;;5089370;28;20048;-39
2021/06/27 07:03:57;;;;;;;3.45;1.77;;;;;;;;;;5075022;28;20071;-42
2021/06/27 07:06:24;;;;;;;3.13;1.77;;;;;;;;;;5069367;28;20140;-40
2021/06/27 07:08:50;;;;;;;2.75;1.80;;;;;;;;;;5087529;28;20101;-40
2021/06/27 07:11:17;;;;;;;2.67;1.70;;;;;;;;;;5064854;28;20572;-40
2021/06/27 07:13:44;;;;;;;2.25;1.80;;;;;;;;;;5094327;28;20473;-40
2021/06/27 07:16:10;;;;;;;2.45;1.58;;;;;;;;;;5088882;28;20115;-40
2021/06/27 07:18:37;;;;;;;2.00;1.45;;;;;;;;;;5090160;28;20560;-43
2021/06/27 07:21:04;;;;;;;2.50;1.50;;;;;;;;;;5089609;28;20430;-40
2021/06/27 07:23:31;;;;;;;1.80;1.50;;;;;;;;;;5071920;28;20081;-40
2021/06/27 07:25:58;;;;;;;2.08;1.40;;;;;;;;;;5085548;28;20075;-40
2021/06/27 07:28:25;;;;;;;1.85;1.30;;;;;;;;;;5072002;28;20044;-40
2021/06/27 07:30:52;;;;;;;1.98;1.20;;;;;;;;;;5087892;28;20049;-41
2021/06/27 07:33:19;;;;;;;2.92;1.35;;;;;;;;;;5087573;28;20051;-43
2021/06/27 07:35:46;;;;;;;1.58;1.08;;;;;;;;;;5090698;28;20083;-41
2021/06/27 07:38:12;;;;;;;1.65;0.90;;;;;;;;;;5091369;28;20540;-42
2021/06/27 07:40:40;;;;;;;5.07;1.50;;;;;;;;;;5088601;28;20099;-40
2021/06/27 07:43:07;;;;;;;2.40;1.40;;;;;;;;;;5085963;28;20513;-40
2021/06/27 07:45:34;;;;;;;2.80;1.23;;;;;;;;;;5093184;28;20521;-40
2021/06/27 07:48:01;;;;;;;2.08;1.40;;;;;;;;;;5094435;28;20048;-40
2021/06/27 07:50:28;;;;;;;3.90;1.38;;;;;;;;;;5093159;28;20122;-41
2021/06/27 07:52:55;;;;;;;3.58;1.23;;;;;;;;;;5093467;28;20157;-41
2021/06/27 07:55:23;;;;;;;3.78;1.35;;;;;;;;;;5093659;28;20064;-40
2021/06/27 07:57:50;;;;;;;2.13;1.25;;;;;;;;;;5065762;28;20122;-39
2021/06/27 08:00:17;;;;;;;3.47;1.30;;;;;;;;;;5093967;28;20561;-41
2021/06/27 08:02:44;;;;;;;1.92;1.40;;;;;;;;;;5091392;28;20051;-41
2021/06/27 08:05:12;;;;;;;1.55;1.02;;;;;;;;;;5093832;28;20068;-43
2021/06/27 08:07:39;;;;;;;1.88;1.48;;;;;;;;;;5093555;28;20130;-40
2021/06/27 08:10:06;;;;;;;2.38;1.30;;;;;;;;;;5082872;28;20079;-40
2021/06/27 08:12:35;;;;;;;3.20;1.40;;;;;;;;;;5087149;28;20059;-39
2021/06/27 08:15:03;;;;;;;2.05;1.48;;;;;;;;;;5092614;28;20040;-40
2021/06/27 08:17:29;;;;;;;1.98;1.20;;;;;;;;;;5089760;28;20446;-40
2021/06/27 08:19:56;;;;;;;3.17;1.38;;;;;;;;;;5093991;28;20115;-41
2021/06/27 08:22:23;;;;;;;3.90;1.60;;;;;;;;;;5079943;28;20076;-40
2021/06/27 08:24:50;;;;;;;3.17;1.50;;;;;;;;;;5093342;28;20052;-44
2021/06/27 08:27:17;;;;;;;1.50;1.10;;;;;;;;;;5093619;28;20135;-41
2021/06/27 08:29:44;;;;;;;1.38;1.13;;;;;;;;;;5093501;28;20075;-41
2021/06/27 08:32:11;;;;;;;1.80;1.40;;;;;;;;;;5092516;28;20087;-40
2021/06/27 08:34:38;;;;;;;2.42;1.30;;;;;;;;;;5093983;28;20048;-41
2021/06/27 08:37:04;;;;;;;1.17;1.08;;;;;;;;;;5059926;28;20072;-40
2021/06/27 08:39:31;;;;;;;1.70;1.05;;;;;;;;;;5076660;28;20064;-40
2021/06/27 08:41:58;;;;;;;2.72;1.38;;;;;;;;;;5093746;28;20071;-41
2021/06/27 08:44:25;;;;;;;1.30;1.10;;;;;;;;;;5073942;28;20424;-41
2021/06/27 08:46:52;;;;;;;3.28;1.13;;;;;;;;;;5069395;28;20047;-41
2021/06/27 08:49:20;;;;;;;2.08;1.20;;;;;;;;;;5088952;28;20051;-42
2021/06/27 08:51:47;;;;;;;1.95;1.15;;;;;;;;;;5091870;28;20584;-40
2021/06/27 08:54:13;;;;;;;1.75;1.13;;;;;;;;;;5084849;28;20443;-41
2021/06/27 08:56:40;;;;;;;1.75;1.38;;;;;;;;;;5091365;28;20117;-41
2021/06/27 08:59:07;;;;;;;1.88;1.40;;;;;;;;;;5091979;28;20497;-41
2021/06/27 09:01:34;;;;;;;2.30;1.40;;;;;;;;;;5088071;28;20094;-40
2021/06/27 09:04:01;;;;;;;2.17;1.48;;;;;;;;;;5092545;28;20043;-43
2021/06/27 09:06:29;;;;;;;1.63;1.40;;;;;;;;;;5092681;28;20051;-42
2021/06/27 09:09:08;;;;;;;2.03;1.40;;;;;;;;;;5092602;28;20087;-40
2021/06/27 09:11:35;;;;;;;1.70;1.30;;;;;;;;;;5083391;28;20089;-40
2021/06/27 09:14:02;;;;;;;2.88;1.38;;;;;;;;;;5092221;28;20497;-44
2021/06/27 09:16:29;;;;;;;2.42;1.80;;;;;;;;;;5072900;28;20408;-41
2021/06/27 09:19:00;;;;;;;2.53;1.80;;;;;;;;;;5077704;28;20075;-42
2021/06/27 09:21:27;;;;;;;1.95;1.50;;;;;;;;;;5091725;28;20044;-42
2021/06/27 09:23:54;;;;;;;2.00;1.60;;;;;;;;;;5077799;28;20720;-40
2021/06/27 09:26:31;;;;;;;2.35;1.42;;;;;;;;;;5092368;28;20067;-40
2021/06/27 09:28:59;;;;;;;1.90;1.50;;;;;;;;;;5090163;28;20431;-41
2021/06/27 09:31:32;;;;;;;3.63;1.70;;;;;;;;;;5055375;28;20063;-42
2021/06/27 09:34:00;;;;;;;2.20;1.63;;;;;;;;;;5089548;28;20071;-40
2021/06/27 09:36:27;;;;;;;2.40;1.65;;;;;;;;;;5092044;28;20159;-39
2021/06/27 09:38:54;;;;;;;3.47;1.65;;;;;;;;;;5089114;28;20451;-40
2021/06/27 09:41:29;;;;;;;3.10;1.52;;;;;;;;;;5089853;28;20048;-41
2021/06/27 09:44:00;;;;;;;2.25;1.40;;;;;;;;;;5090869;28;20056;-40
2021/06/27 09:46:36;;;;;;;2.00;1.52;;;;;;;;;;5087486;28;20455;-43
2021/06/27 09:49:09;;;;;;;2.08;1.40;;;;;;;;;;5090020;28;20093;-40
2021/06/27 09:51:37;;;;;;;2.17;1.85;;;;;;;;;;5087639;28;20552;-40
2021/06/27 09:54:11;;;;;;;1.92;1.50;;;;;;;;;;5071294;28;20074;-40
2021/06/27 09:56:38;;;;;;;2.15;1.50;;;;;;;;;;5074606;28;20123;-41
2021/06/27 09:59:07;;;;;;;3.17;2.00;;;;;;;;;;5080383;28;20092;-41
2021/06/27 10:01:36;;;;;;;2.10;1.65;;;;;;;;;;5086174;28;20048;-40
2021/06/27 10:04:05;;;;;;;2.67;1.90;;;;;;;;;;5080544;28;20052;-40
2021/06/27 10:06:33;;;;;;;2.33;1.70;;;;;;;;;;5081872;28;20048;-41
2021/06/27 10:09:09;;;;;;;4.35;1.90;;;;;;;;;;5085094;28;20420;-40
2021/06/27 10:11:36;;;;;;;2.97;2.00;;;;;;;;;;5088563;28;20113;-42
2021/06/27 10:14:08;;;;;;;2.60;1.73;;;;;;;;;;5090712;28;20101;-45
2021/06/27 10:16:35;;;;;;;2.53;1.90;;;;;;;;;;5089873;28;20036;-41
2021/06/27 10:19:03;;;;;;;2.00;1.75;;;;;;;;;;5089730;28;20764;-44
2021/06/27 10:21:30;;;;;;;1.98;1.60;;;;;;;;;;5089364;28;20485;-40
2021/06/27 10:23:57;;;;;;;2.53;1.90;;;;;;;;;;5084856;28;20458;-40
2021/06/27 10:26:25;;;;;;;2.67;1.77;;;;;;;;;;5074601;28;20497;-44
2021/06/27 10:28:52;;;;;;;1.73;1.58;;;;;;;;;;5090196;28;20044;-40
2021/06/27 10:31:22;;;;;;;4.65;1.70;;;;;;;;;;5070510;28;20136;-43
2021/06/27 10:33:49;;;;;;;2.28;1.65;;;;;;;;;;5088015;28;20044;-40
2021/06/27 10:36:18;;;;;;;3.20;2.00;;;;;;;;;;5083701;28;20460;-41
2021/06/27 10:38:47;;;;;;;2.53;1.67;;;;;;;;;;5086013;28;20058;-40
2021/06/27 10:41:14;;;;;;;2.53;1.77;;;;;;;;;;5084526;28;20075;-41
2021/06/27 10:43:55;;;;;;;2.70;1.88;;;;;;;;;;5091034;28;20728;-40
2021/06/27 10:46:42;;;;;;;1.90;1.55;;;;;;;;;;5090603;28;20094;-40
2021/06/27 10:49:27;;;;;;;4.75;1.88;;;;;;;;;;5089117;28;20481;-43
2021/06/27 10:52:03;;;;;;;1.95;1.52;;;;;;;;;;5085252;28;20072;-40
2021/06/27 10:54:40;;;;;;;2.33;1.63;;;;;;;;;;5084479;28;20060;-43
2021/06/27 10:57:11;;;;;;;2.78;1.60;;;;;;;;;;5089361;28;20162;-44
2021/06/27 10:59:52;;;;;;;2.63;1.50;;;;;;;;;;5085415;28;20047;-40
2021/06/27 11:02:31;;;;;;;2.25;1.67;;;;;;;;;;5094205;28;20052;-40
2021/06/27 11:05:18;;;;;;;3.55;1.70;;;;;;;;;;5098335;28;20125;-40
2021/06/27 11:07:44;;;;;;;3.78;1.52;;;;;;;;;;5090367;28;20147;-39
2021/06/27 11:10:17;;;;;;;3.83;1.70;;;;;;;;;;5087381;28;20650;-45
2021/06/27 11:13:07;;;;;;;1.88;1.60;;;;;;;;;;5090064;28;20055;-41
2021/06/27 11:15:35;;;;;;;3.67;2.08;;;;;;;;;;5080957;28;20047;-44
2021/06/27 11:18:04;;;;;;;2.88;1.80;;;;;;;;;;5069161;28;20155;-40
2021/06/27 11:20:32;;;;;;;2.65;2.10;;;;;;;;;;5081824;28;20408;-42
2021/06/27 11:22:59;;;;;;;2.85;1.55;;;;;;;;;;5089564;28;20076;-40
2021/06/27 11:25:32;;;;;;;3.50;1.52;;;;;;;;;;5088252;28;20064;-42
2021/06/27 11:28:22;;;;;;;2.25;1.60;;;;;;;;;;5090929;28;20117;-41
2021/06/27 11:31:16;;;;;;;2.05;1.65;;;;;;;;;;5068883;28;20044;-40
2021/06/27 11:33:43;;;;;;;2.95;1.58;;;;;;;;;;5074603;28;20049;-43
2021/06/27 11:36:36;;;;;;;2.72;1.70;;;;;;;;;;5081984;28;20448;-40
2021/06/27 11:39:03;;;;;;;2.53;1.63;;;;;;;;;;5070387;28;20059;-41
2021/06/27 11:41:40;;;;;;;2.85;1.80;;;;;;;;;;5073262;28;20068;-40
2021/06/27 11:44:11;;;;;;;1.83;1.65;;;;;;;;;;5090227;28;20535;-43
2021/06/27 11:46:46;;;;;;;2.97;1.60;;;;;;;;;;5085173;28;20121;-41
2021/06/27 11:49:17;;;;;;;4.68;1.88;;;;;;;;;;5072527;28;20076;-41
2021/06/27 11:51:45;;;;;;;2.00;1.65;;;;;;;;;;5068636;28;20072;-41
2021/06/27 11:54:13;;;;;;;2.42;1.85;;;;;;;;;;5084535;28;20040;-40
2021/06/27 11:56:56;;;;;;;3.63;2.00;;;;;;;;;;5089724;28;20113;-42
2021/06/27 11:59:25;;;;;;;2.70;2.03;;;;;;;;;;5090101;28;20509;-40
2021/06/27 12:02:12;;;;;;;2.55;2.00;;;;;;;;;;5081451;28;20079;-44
2021/06/27 12:05:01;;;;;;;2.45;1.90;;;;;;;;;;5088207;28;20063;-40
2021/06/27 12:07:27;;;;;;;2.30;1.90;;;;;;;;;;5088622;28;20076;-44
2021/06/27 12:09:55;;;;;;;4.03;2.10;;;;;;;;;;5065571;28;20044;-41
2021/06/27 12:12:37;;;;;;;3.13;1.98;;;;;;;;;;5086305;28;20505;-41
2021/06/27 12:15:06;;;;;;;2.85;1.85;;;;;;;;;;5077619;28;20136;-42
2021/06/27 12:17:32;;;;;;;2.30;2.10;;;;;;;;;;5082565;28;20123;-41
2021/06/27 12:19:59;;;;;;;3.20;2.40;;;;;;;;;;5085753;28;20040;-40
2021/06/27 12:22:27;;;;;;;2.75;1.77;;;;;;;;;;5067672;28;20052;-41
2021/06/27 12:25:01;;;;;;;2.20;1.90;;;;;;;;;;5080898;28;20058;-40
2021/06/27 12:27:28;;;;;;;2.83;1.92;;;;;;;;;;5082610;28;20084;-39
2021/06/27 12:29:57;;;;;;;2.42;1.98;;;;;;;;;;5084525;28;20078;-40
2021/06/27 12:32:23;;;;;;;3.42;2.42;;;;;;;;;;5079638;28;20578;-40
2021/06/27 12:34:53;;;;;;;2.42;2.00;;;;;;;;;;5088237;28;20044;-39
2021/06/27 12:37:20;;;;;;;2.42;2.08;;;;;;;;;;5084991;28;20067;-41
2021/06/27 12:39:47;;;;;;;5.10;2.30;;;;;;;;;;5069792;28;20036;-41
2021/06/27 12:42:17;;;;;;;2.45;1.88;;;;;;;;;;5093091;28;20119;-40
2021/06/27 12:44:43;;;;;;;4.25;1.80;;;;;;;;;;5073680;28;20043;-40
2021/06/27 12:47:10;;;;;;;2.17;1.80;;;;;;;;;;5083259;28;20083;-40
2021/06/27 12:49:47;;;;;;;1.92;1.60;;;;;;;;;;5088437;28;20072;-40
2021/06/27 12:52:14;;;;;;;2.80;1.90;;;;;;;;;;5089050;28;20416;-42
2021/06/27 12:54:44;;;;;;;2.00;1.80;;;;;;;;;;5090287;28;20097;-41
2021/06/27 12:57:14;;;;;;;2.40;2.00;;;;;;;;;;5093471;28;20113;-41
2021/06/27 12:59:43;;;;;;;2.55;1.95;;;;;;;;;;5092675;28;20048;-40
2021/06/27 13:02:17;;;;;;;2.33;1.80;;;;;;;;;;5084591;28;20048;-41
2021/06/27 13:04:44;;;;;;;2.20;1.85;;;;;;;;;;5091865;28;20051;-45
2021/06/27 13:07:23;;;;;;;2.70;1.95;;;;;;;;;;5093106;28;20055;-40
2021/06/27 13:10:00;;;;;;;2.83;2.00;;;;;;;;;;5090386;28;20110;-41
2021/06/27 13:12:29;;;;;;;4.28;1.88;;;;;;;;;;5093671;28;20370;-42
2021/06/27 13:15:10;;;;;;;2.35;1.90;;;;;;;;;;5074554;28;20036;-40
2021/06/27 13:17:41;;;;;;;3.05;2.10;;;;;;;;;;5087352;28;20048;-43
2021/06/27 13:20:11;;;;;;;3.53;2.22;;;;;;;;;;5075770;28;20048;-41
2021/06/27 13:22:57;;;;;;;3.40;1.90;;;;;;;;;;5084833;28;20633;-42
2021/06/27 13:25:35;;;;;;;4.28;2.03;;;;;;;;;;5091641;28;20139;-40
2021/06/27 13:28:03;;;;;;;3.88;2.20;;;;;;;;;;5093125;28;20048;-44
2021/06/27 13:30:42;;;;;;;3.03;2.05;;;;;;;;;;5088963;28;20125;-41
2021/06/27 13:33:09;;;;;;;4.13;2.40;;;;;;;;;;5087069;28;20139;-41
2021/06/27 13:35:38;;;;;;;3.47;2.20;;;;;;;;;;5086960;28;20043;-39
2021/06/27 13:38:06;;;;;;;2.65;2.10;;;;;;;;;;5087281;28;20186;-42
2021/06/27 13:40:34;;;;;;;4.75;2.08;;;;;;;;;;5082924;28;20147;-44
2021/06/27 13:43:01;;;;;;;3.92;2.20;;;;;;;;;;5087217;28;20056;-41
2021/06/27 13:45:28;;;;;;;4.00;1.80;;;;;;;;;;5077424;28;20553;-44
2021/06/27 13:47:55;;;;;;;3.08;1.67;;;;;;;;;;5077669;28;20361;-40
2021/06/27 13:50:24;;;;;;;2.50;2.00;;;;;;;;;;5065636;28;20044;-40
2021/06/27 13:52:51;;;;;;;3.25;2.17;;;;;;;;;;5077449;28;20052;-40
2021/06/27 13:55:19;;;;;;;2.42;1.90;;;;;;;;;;5086706;28;20484;-40
2021/06/27 13:57:46;;;;;;;2.35;1.88;;;;;;;;;;5089389;28;20048;-41
2021/06/27 14:00:14;;;;;;;3.65;2.30;;;;;;;;;;5088610;28;20123;-43
2021/06/27 14:02:41;;;;;;;2.90;2.10;;;;;;;;;;5089799;28;20087;-40
2021/06/27 14:05:09;;;;;;;2.88;1.95;;;;;;;;;;5091289;28;20063;-43
2021/06/27 14:07:36;;;;;;;2.65;2.08;;;;;;;;;;5091232;28;20525;-41
2021/06/27 14:10:04;;;;;;;3.95;2.30;;;;;;;;;;5082443;28;20048;-45
2021/06/27 14:12:31;;;;;;;2.50;2.30;;;;;;;;;;5073713;28;20052;-43
2021/06/27 14:14:59;;;;;;;3.33;2.40;;;;;;;;;;5085077;28;20058;-38
2021/06/27 14:17:26;;;;;;;2.47;2.08;;;;;;;;;;5087472;28;20062;-38
2021/06/27 14:19:54;;;;;;;2.90;2.10;;;;;;;;;;5090406;28;20059;-39
2021/06/27 14:22:21;;;;;;;2.25;2.00;;;;;;;;;;5082241;28;20110;-40
2021/06/27 14:24:48;;;;;;;1.88;1.67;;;;;;;;;;5076675;28;20172;-38
2021/06/27 14:27:16;;;;;;;3.38;2.05;;;;;;;;;;5090669;28;20056;-38
2021/06/27 14:29:43;;;;;;;2.97;2.30;;;;;;;;;;5090904;28;20131;-38
2021/06/27 14:32:10;;;;;;;2.55;2.33;;;;;;;;;;5088190;28;20505;-39
2021/06/27 14:34:37;;;;;;;2.83;2.50;;;;;;;;;;5086781;28;20639;-41
2021/06/27 14:37:05;;;;;;;3.05;2.60;;;;;;;;;;5090298;28;20072;-42
2021/06/27 14:39:32;;;;;;;3.45;2.53;;;;;;;;;;5085257;28;20048;-41
2021/06/27 14:41:59;;;;;;;2.88;2.53;;;;;;;;;;5087252;28;20074;-39
2021/06/27 14:44:26;;;;;;;3.00;2.50;;;;;;;;;;5069860;28;20044;-39
2021/06/27 14:46:53;;;;;;;3.80;2.60;;;;;;;;;;5068395;28;20093;-38
2021/06/27 14:49:21;;;;;;;3.40;2.50;;;;;;;;;;5089790;28;20063;-39
2021/06/27 14:51:48;;;;;;;3.75;2.42;;;;;;;;;;5084137;28;20072;-38